sensor_id;sensor_type;location;lat;lon;timestamp;pressure;altitude;pressure_sealevel;temperature
66372;BMP180;53168;51.146;17.120;2023-05-14T00:01:32;100718.80;;;9.60
66372;BMP180;53168;51.146;17.120;2023-05-14T00:04:07;100715.80;;;9.60
66372;BMP180;53168;51.146;17.120;2023-05-14T00:06:40;100713.00;;;9.54
66372;BMP180;53168;51.146;17.120;2023-05-14T00:09:13;100709.20;;;9.50
66372;BMP180;53168;51.146;17.120;2023-05-14T00:11:47;100707.80;;;9.60
66372;BMP180;53168;51.146;17.120;2023-05-14T00:14:20;100704.40;;;9.60
66372;BMP180;53168;51.146;17.120;2023-05-14T00:16:53;100700.60;;;9.66
66372;BMP180;53168;51.146;17.120;2023-05-14T00:19:26;100700.20;;;9.70
66372;BMP180;53168;51.146;17.120;2023-05-14T00:21:59;100697.80;;;9.70
66372;BMP180;53168;51.146;17.120;2023-05-14T00:27:06;100697.20;;;9.70
66372;BMP180;53168;51.146;17.120;2023-05-14T00:29:40;100692.80;;;9.70
66372;BMP180;53168;51.146;17.120;2023-05-14T00:32:14;100696.00;;;9.70
66372;BMP180;53168;51.146;17.120;2023-05-14T00:34:47;100692.80;;;9.70
66372;BMP180;53168;51.146;17.120;2023-05-14T00:37:20;100690.20;;;9.80
66372;BMP180;53168;51.146;17.120;2023-05-14T00:39:54;100692.40;;;9.80
66372;BMP180;53168;51.146;17.120;2023-05-14T00:42:27;100688.60;;;9.80
66372;BMP180;53168;51.146;17.120;2023-05-14T00:45:00;100689.20;;;9.86
66372;BMP180;53168;51.146;17.120;2023-05-14T00:47:33;100688.80;;;9.90
66372;BMP180;53168;51.146;17.120;2023-05-14T00:50:09;100695.60;;;9.94
66372;BMP180;53168;51.146;17.120;2023-05-14T00:52:43;100689.40;;;10.00
66372;BMP180;53168;51.146;17.120;2023-05-14T00:55:19;100692.40;;;10.02
66372;BMP180;53168;51.146;17.120;2023-05-14T00:57:56;100697.80;;;10.10
66372;BMP180;53168;51.146;17.120;2023-05-14T01:00:30;100696.40;;;10.10
66372;BMP180;53168;51.146;17.120;2023-05-14T01:03:04;100699.20;;;10.10
66372;BMP180;53168;51.146;17.120;2023-05-14T01:05:50;100691.20;;;10.18
66372;BMP180;53168;51.146;17.120;2023-05-14T01:08:34;100690.40;;;10.20
66372;BMP180;53168;51.146;17.120;2023-05-14T01:11:13;100686.20;;;10.20
66372;BMP180;53168;51.146;17.120;2023-05-14T01:14:01;100684.40;;;10.30
66372;BMP180;53168;51.146;17.120;2023-05-14T01:16:37;100683.40;;;10.30
66372;BMP180;53168;51.146;17.120;2023-05-14T01:19:25;100684.80;;;10.30
66372;BMP180;53168;51.146;17.120;2023-05-14T01:22:01;100677.00;;;10.30
66372;BMP180;53168;51.146;17.120;2023-05-14T01:24:37;100677.40;;;10.30
66372;BMP180;53168;51.146;17.120;2023-05-14T01:27:19;100668.80;;;10.32
66372;BMP180;53168;51.146;17.120;2023-05-14T01:30:02;100674.40;;;10.40
66372;BMP180;53168;51.146;17.120;2023-05-14T01:32:39;100672.80;;;10.40
66372;BMP180;53168;51.146;17.120;2023-05-14T01:35:14;100672.00;;;10.40
66372;BMP180;53168;51.146;17.120;2023-05-14T01:37:48;100675.20;;;10.40
66372;BMP180;53168;51.146;17.120;2023-05-14T01:40:23;100677.40;;;10.40
66372;BMP180;53168;51.146;17.120;2023-05-14T01:42:57;100675.20;;;10.40
66372;BMP180;53168;51.146;17.120;2023-05-14T01:45:33;100673.80;;;10.40
66372;BMP180;53168;51.146;17.120;2023-05-14T01:48:07;100672.80;;;10.30
66372;BMP180;53168;51.146;17.120;2023-05-14T01:50:41;100668.80;;;10.30
66372;BMP180;53168;51.146;17.120;2023-05-14T01:53:15;100668.80;;;10.30
66372;BMP180;53168;51.146;17.120;2023-05-14T01:55:48;100670.20;;;10.30
66372;BMP180;53168;51.146;17.120;2023-05-14T01:58:21;100666.80;;;10.20
66372;BMP180;53168;51.146;17.120;2023-05-14T02:00:54;100668.20;;;10.20
66372;BMP180;53168;51.146;17.120;2023-05-14T02:03:28;100656.40;;;10.20
66372;BMP180;53168;51.146;17.120;2023-05-14T02:06:02;100659.60;;;10.12
66372;BMP180;53168;51.146;17.120;2023-05-14T02:08:35;100659.20;;;10.10
66372;BMP180;53168;51.146;17.120;2023-05-14T02:11:09;100655.40;;;10.00
66372;BMP180;53168;51.146;17.120;2023-05-14T02:13:42;100653.60;;;9.92
66372;BMP180;53168;51.146;17.120;2023-05-14T02:16:16;100655.00;;;9.90
66372;BMP180;53168;51.146;17.120;2023-05-14T02:18:50;100657.00;;;9.80
66372;BMP180;53168;51.146;17.120;2023-05-14T02:21:23;100660.00;;;9.80
66372;BMP180;53168;51.146;17.120;2023-05-14T02:23:56;100658.40;;;9.82
66372;BMP180;53168;51.146;17.120;2023-05-14T02:26:30;100658.40;;;9.82
66372;BMP180;53168;51.146;17.120;2023-05-14T02:29:03;100657.40;;;9.80
66372;BMP180;53168;51.146;17.120;2023-05-14T02:31:36;100660.40;;;9.72
66372;BMP180;53168;51.146;17.120;2023-05-14T02:34:10;100658.60;;;9.70
66372;BMP180;53168;51.146;17.120;2023-05-14T02:36:43;100656.20;;;9.60
66372;BMP180;53168;51.146;17.120;2023-05-14T02:39:17;100657.40;;;9.50
66372;BMP180;53168;51.146;17.120;2023-05-14T02:41:50;100655.20;;;9.50
66372;BMP180;53168;51.146;17.120;2023-05-14T02:44:23;100655.00;;;9.48
66372;BMP180;53168;51.146;17.120;2023-05-14T02:46:57;100652.20;;;9.50
66372;BMP180;53168;51.146;17.120;2023-05-14T02:49:36;100646.20;;;9.50
66372;BMP180;53168;51.146;17.120;2023-05-14T02:52:10;100648.20;;;9.50
66372;BMP180;53168;51.146;17.120;2023-05-14T02:54:44;100644.00;;;9.60
66372;BMP180;53168;51.146;17.120;2023-05-14T02:57:17;100641.40;;;9.70
66372;BMP180;53168;51.146;17.120;2023-05-14T02:59:50;100641.60;;;9.80
66372;BMP180;53168;51.146;17.120;2023-05-14T03:02:24;100638.40;;;9.80
66372;BMP180;53168;51.146;17.120;2023-05-14T03:04:58;100635.80;;;9.80
66372;BMP180;53168;51.146;17.120;2023-05-14T03:07:31;100635.40;;;9.76
66372;BMP180;53168;51.146;17.120;2023-05-14T03:10:07;100635.20;;;9.70
66372;BMP180;53168;51.146;17.120;2023-05-14T03:12:40;100638.40;;;9.60
66372;BMP180;53168;51.146;17.120;2023-05-14T03:15:13;100634.20;;;9.60
66372;BMP180;53168;51.146;17.120;2023-05-14T03:17:47;100629.60;;;9.50
66372;BMP180;53168;51.146;17.120;2023-05-14T03:20:21;100631.80;;;9.50
66372;BMP180;53168;51.146;17.120;2023-05-14T03:22:56;100635.80;;;9.40
66372;BMP180;53168;51.146;17.120;2023-05-14T03:25:29;100631.00;;;9.40
66372;BMP180;53168;51.146;17.120;2023-05-14T03:28:03;100638.80;;;9.40
66372;BMP180;53168;51.146;17.120;2023-05-14T03:30:37;100636.00;;;9.40
66372;BMP180;53168;51.146;17.120;2023-05-14T03:33:10;100643.20;;;9.44
66372;BMP180;53168;51.146;17.120;2023-05-14T03:35:44;100644.40;;;9.50
66372;BMP180;53168;51.146;17.120;2023-05-14T03:38:17;100645.80;;;9.60
66372;BMP180;53168;51.146;17.120;2023-05-14T03:40:51;100641.80;;;9.60
66372;BMP180;53168;51.146;17.120;2023-05-14T03:43:24;100644.40;;;9.70
66372;BMP180;53168;51.146;17.120;2023-05-14T03:45:58;100641.00;;;9.70
66372;BMP180;53168;51.146;17.120;2023-05-14T03:48:32;100637.60;;;9.70
66372;BMP180;53168;51.146;17.120;2023-05-14T03:51:07;100639.80;;;9.70
66372;BMP180;53168;51.146;17.120;2023-05-14T03:53:40;100639.40;;;9.78
66372;BMP180;53168;51.146;17.120;2023-05-14T03:56:14;100637.40;;;9.80
66372;BMP180;53168;51.146;17.120;2023-05-14T03:58:47;100640.60;;;9.84
66372;BMP180;53168;51.146;17.120;2023-05-14T04:01:20;100640.80;;;9.90
66372;BMP180;53168;51.146;17.120;2023-05-14T04:03:54;100638.80;;;10.00
66372;BMP180;53168;51.146;17.120;2023-05-14T04:06:28;100631.60;;;10.06
66372;BMP180;53168;51.146;17.120;2023-05-14T04:09:02;100632.60;;;10.10
66372;BMP180;53168;51.146;17.120;2023-05-14T04:11:35;100615.40;;;10.28
66372;BMP180;53168;51.146;17.120;2023-05-14T04:14:09;100595.40;;;11.06
66372;BMP180;53168;51.146;17.120;2023-05-14T04:16:42;100595.20;;;12.04
66372;BMP180;53168;51.146;17.120;2023-05-14T04:19:16;100595.80;;;12.82
66372;BMP180;53168;51.146;17.120;2023-05-14T04:21:50;100591.20;;;13.72
66372;BMP180;53168;51.146;17.120;2023-05-14T04:24:23;100595.20;;;14.56
66372;BMP180;53168;51.146;17.120;2023-05-14T04:26:56;100597.40;;;15.14
66372;BMP180;53168;51.146;17.120;2023-05-14T04:29:30;100590.20;;;15.70
66372;BMP180;53168;51.146;17.120;2023-05-14T04:32:04;100587.40;;;16.32
66372;BMP180;53168;51.146;17.120;2023-05-14T04:34:38;100584.40;;;16.84
66372;BMP180;53168;51.146;17.120;2023-05-14T04:37:12;100580.20;;;17.44
66372;BMP180;53168;51.146;17.120;2023-05-14T04:39:45;100581.40;;;18.00
66372;BMP180;53168;51.146;17.120;2023-05-14T04:42:18;100581.00;;;18.40
66372;BMP180;53168;51.146;17.120;2023-05-14T04:44:52;100578.00;;;18.70
66372;BMP180;53168;51.146;17.120;2023-05-14T04:47:25;100579.40;;;18.70
66372;BMP180;53168;51.146;17.120;2023-05-14T04:49:58;100571.20;;;18.86
66372;BMP180;53168;51.146;17.120;2023-05-14T04:52:32;100565.00;;;19.04
66372;BMP180;53168;51.146;17.120;2023-05-14T04:55:07;100561.80;;;19.50
66372;BMP180;53168;51.146;17.120;2023-05-14T04:57:40;100551.40;;;20.08
66372;BMP180;53168;51.146;17.120;2023-05-14T05:00:16;100544.00;;;20.50
66372;BMP180;53168;51.146;17.120;2023-05-14T05:02:50;100541.80;;;21.06
66372;BMP180;53168;51.146;17.120;2023-05-14T05:05:24;100535.00;;;21.42
66372;BMP180;53168;51.146;17.120;2023-05-14T05:07:57;100534.00;;;21.60
66372;BMP180;53168;51.146;17.120;2023-05-14T05:10:30;100526.80;;;21.86
66372;BMP180;53168;51.146;17.120;2023-05-14T05:13:04;100522.60;;;22.22
66372;BMP180;53168;51.146;17.120;2023-05-14T05:15:37;100517.60;;;22.76
66372;BMP180;53168;51.146;17.120;2023-05-14T05:18:11;100510.00;;;23.20
66372;BMP180;53168;51.146;17.120;2023-05-14T05:20:44;100527.00;;;23.30
66372;BMP180;53168;51.146;17.120;2023-05-14T05:23:17;100530.00;;;22.94
66372;BMP180;53168;51.146;17.120;2023-05-14T05:25:51;100516.80;;;22.80
66372;BMP180;53168;51.146;17.120;2023-05-14T05:28:24;100525.40;;;22.90
66372;BMP180;53168;51.146;17.120;2023-05-14T05:30:57;100517.20;;;22.80
66372;BMP180;53168;51.146;17.120;2023-05-14T05:33:30;100508.80;;;22.94
66372;BMP180;53168;51.146;17.120;2023-05-14T05:36:04;100500.80;;;23.16
66372;BMP180;53168;51.146;17.120;2023-05-14T05:38:37;100510.40;;;23.30
66372;BMP180;53168;51.146;17.120;2023-05-14T05:41:10;100523.20;;;23.10
66372;BMP180;53168;51.146;17.120;2023-05-14T05:43:44;100520.40;;;22.80
66372;BMP180;53168;51.146;17.120;2023-05-14T05:46:17;100513.00;;;22.80
66372;BMP180;53168;51.146;17.120;2023-05-14T05:48:51;100487.40;;;22.76
66372;BMP180;53168;51.146;17.120;2023-05-14T05:51:25;100472.60;;;23.56
66372;BMP180;53168;51.146;17.120;2023-05-14T05:53:58;100483.40;;;24.22
66372;BMP180;53168;51.146;17.120;2023-05-14T05:56:31;100483.00;;;24.78
66372;BMP180;53168;51.146;17.120;2023-05-14T05:59:05;100501.00;;;25.00
66372;BMP180;53168;51.146;17.120;2023-05-14T06:01:38;100519.80;;;24.52
66372;BMP180;53168;51.146;17.120;2023-05-14T06:04:14;100514.00;;;24.20
66372;BMP180;53168;51.146;17.120;2023-05-14T06:06:47;100534.00;;;24.20
66372;BMP180;53168;51.146;17.120;2023-05-14T06:09:21;100543.60;;;23.90
66372;BMP180;53168;51.146;17.120;2023-05-14T06:11:54;100533.40;;;23.52
66372;BMP180;53168;51.146;17.120;2023-05-14T06:14:27;100530.60;;;23.00
66372;BMP180;53168;51.146;17.120;2023-05-14T06:17:00;100525.60;;;22.70
66372;BMP180;53168;51.146;17.120;2023-05-14T06:19:33;100538.20;;;22.58
66372;BMP180;53168;51.146;17.120;2023-05-14T06:22:07;100533.40;;;22.40
66372;BMP180;53168;51.146;17.120;2023-05-14T06:24:40;100524.80;;;22.28
66372;BMP180;53168;51.146;17.120;2023-05-14T06:27:13;100539.80;;;22.08
66372;BMP180;53168;51.146;17.120;2023-05-14T06:29:47;100534.20;;;21.90
66372;BMP180;53168;51.146;17.120;2023-05-14T06:32:20;100530.00;;;22.00
66372;BMP180;53168;51.146;17.120;2023-05-14T06:34:54;100548.20;;;21.90
66372;BMP180;53168;51.146;17.120;2023-05-14T06:37:27;100541.80;;;21.70
66372;BMP180;53168;51.146;17.120;2023-05-14T06:40:00;100530.40;;;21.56
66372;BMP180;53168;51.146;17.120;2023-05-14T06:42:34;100506.80;;;21.60
66372;BMP180;53168;51.146;17.120;2023-05-14T06:45:10;100481.80;;;22.22
66372;BMP180;53168;51.146;17.120;2023-05-14T06:47:43;100452.20;;;23.22
66372;BMP180;53168;51.146;17.120;2023-05-14T06:50:17;100489.60;;;24.18
66372;BMP180;53168;51.146;17.120;2023-05-14T06:52:50;100462.60;;;24.16
66372;BMP180;53168;51.146;17.120;2023-05-14T06:55:24;100454.20;;;24.60
66372;BMP180;53168;51.146;17.120;2023-05-14T06:57:57;100471.00;;;25.94
66372;BMP180;53168;51.146;17.120;2023-05-14T07:00:30;100448.60;;;26.94
66372;BMP180;53168;51.146;17.120;2023-05-14T07:03:04;100449.80;;;28.06
66372;BMP180;53168;51.146;17.120;2023-05-14T07:05:37;100451.60;;;29.08
66372;BMP180;53168;51.146;17.120;2023-05-14T07:08:12;100450.60;;;29.62
66372;BMP180;53168;51.146;17.120;2023-05-14T07:10:45;100447.00;;;29.80
66372;BMP180;53168;51.146;17.120;2023-05-14T07:13:18;100451.60;;;30.02
66372;BMP180;53168;51.146;17.120;2023-05-14T07:15:51;100454.60;;;30.16
66372;BMP180;53168;51.146;17.120;2023-05-14T07:18:26;100461.20;;;30.78
66372;BMP180;53168;51.146;17.120;2023-05-14T07:20:59;100463.20;;;31.28
66372;BMP180;53168;51.146;17.120;2023-05-14T07:23:33;100467.60;;;31.38
66372;BMP180;53168;51.146;17.120;2023-05-14T07:26:08;100461.80;;;30.84
66372;BMP180;53168;51.146;17.120;2023-05-14T07:28:42;100455.20;;;30.60
66372;BMP180;53168;51.146;17.120;2023-05-14T07:31:15;100458.00;;;30.22
66372;BMP180;53168;51.146;17.120;2023-05-14T07:33:48;100448.00;;;30.50
66372;BMP180;53168;51.146;17.120;2023-05-14T07:36:21;100461.20;;;31.10
66372;BMP180;53168;51.146;17.120;2023-05-14T07:38:55;100463.40;;;31.58
66372;BMP180;53168;51.146;17.120;2023-05-14T07:41:28;100462.40;;;31.62
66372;BMP180;53168;51.146;17.120;2023-05-14T07:44:01;100460.40;;;31.66
66372;BMP180;53168;51.146;17.120;2023-05-14T07:46:36;100450.00;;;31.60
66372;BMP180;53168;51.146;17.120;2023-05-14T07:49:09;100450.20;;;32.22
66372;BMP180;53168;51.146;17.120;2023-05-14T07:51:43;100451.00;;;32.76
66372;BMP180;53168;51.146;17.120;2023-05-14T07:54:18;100455.20;;;33.10
66372;BMP180;53168;51.146;17.120;2023-05-14T07:56:51;100451.00;;;33.70
66372;BMP180;53168;51.146;17.120;2023-05-14T07:59:24;100450.20;;;33.70
66372;BMP180;53168;51.146;17.120;2023-05-14T08:01:58;100453.60;;;33.90
66372;BMP180;53168;51.146;17.120;2023-05-14T08:04:31;100446.40;;;33.70
66372;BMP180;53168;51.146;17.120;2023-05-14T08:07:07;100454.60;;;33.90
66372;BMP180;53168;51.146;17.120;2023-05-14T08:09:40;100441.60;;;33.56
66372;BMP180;53168;51.146;17.120;2023-05-14T08:12:14;100466.00;;;33.28
66372;BMP180;53168;51.146;17.120;2023-05-14T08:14:47;100439.80;;;33.10
66372;BMP180;53168;51.146;17.120;2023-05-14T08:17:20;100442.20;;;33.00
66372;BMP180;53168;51.146;17.120;2023-05-14T08:19:54;100435.40;;;33.06
66372;BMP180;53168;51.146;17.120;2023-05-14T08:22:28;100437.20;;;33.84
66372;BMP180;53168;51.146;17.120;2023-05-14T08:25:01;100435.80;;;34.64
66372;BMP180;53168;51.146;17.120;2023-05-14T08:27:34;100438.40;;;35.10
66372;BMP180;53168;51.146;17.120;2023-05-14T08:30:10;100442.40;;;35.56
66372;BMP180;53168;51.146;17.120;2023-05-14T08:32:43;100431.80;;;35.20
66372;BMP180;53168;51.146;17.120;2023-05-14T08:35:17;100424.80;;;34.34
66372;BMP180;53168;51.146;17.120;2023-05-14T08:37:50;100418.80;;;34.34
66372;BMP180;53168;51.146;17.120;2023-05-14T08:40:23;100434.40;;;34.50
66372;BMP180;53168;51.146;17.120;2023-05-14T08:42:58;100426.60;;;34.40
66372;BMP180;53168;51.146;17.120;2023-05-14T08:45:35;100421.80;;;34.70
66372;BMP180;53168;51.146;17.120;2023-05-14T08:48:13;100419.00;;;34.80
66372;BMP180;53168;51.146;17.120;2023-05-14T08:50:49;100421.40;;;34.86
66372;BMP180;53168;51.146;17.120;2023-05-14T08:53:22;100418.80;;;34.70
66372;BMP180;53168;51.146;17.120;2023-05-14T08:55:56;100423.00;;;34.90
66372;BMP180;53168;51.146;17.120;2023-05-14T08:58:30;100413.80;;;34.70
66372;BMP180;53168;51.146;17.120;2023-05-14T09:01:03;100408.60;;;34.68
66372;BMP180;53168;51.146;17.120;2023-05-14T09:03:38;100403.00;;;34.20
66372;BMP180;53168;51.146;17.120;2023-05-14T09:06:13;100402.60;;;34.30
66372;BMP180;53168;51.146;17.120;2023-05-14T09:08:47;100401.40;;;34.40
66372;BMP180;53168;51.146;17.120;2023-05-14T09:11:21;100396.20;;;34.70
66372;BMP180;53168;51.146;17.120;2023-05-14T09:13:55;100397.40;;;35.14
66372;BMP180;53168;51.146;17.120;2023-05-14T09:16:29;100393.60;;;35.30
66372;BMP180;53168;51.146;17.120;2023-05-14T09:19:02;100399.80;;;35.40
66372;BMP180;53168;51.146;17.120;2023-05-14T09:21:36;100404.00;;;35.32
66372;BMP180;53168;51.146;17.120;2023-05-14T09:24:19;100393.60;;;34.82
66372;BMP180;53168;51.146;17.120;2023-05-14T09:26:55;100390.00;;;34.92
66372;BMP180;53168;51.146;17.120;2023-05-14T09:29:30;100395.00;;;35.34
66372;BMP180;53168;51.146;17.120;2023-05-14T09:32:04;100384.20;;;35.40
66372;BMP180;53168;51.146;17.120;2023-05-14T09:34:38;100384.40;;;36.10
66372;BMP180;53168;51.146;17.120;2023-05-14T09:37:12;100388.80;;;36.50
66372;BMP180;53168;51.146;17.120;2023-05-14T09:39:45;100388.60;;;35.78
66372;BMP180;53168;51.146;17.120;2023-05-14T09:42:19;100380.40;;;35.50
66372;BMP180;53168;51.146;17.120;2023-05-14T09:44:55;100373.20;;;35.80
66372;BMP180;53168;51.146;17.120;2023-05-14T09:47:28;100375.20;;;35.24
66372;BMP180;53168;51.146;17.120;2023-05-14T09:50:02;100418.40;;;34.68
66372;BMP180;53168;51.146;17.120;2023-05-14T09:52:57;100430.80;;;35.20
66372;BMP180;53168;51.146;17.120;2023-05-14T09:55:31;100428.80;;;31.66
66372;BMP180;53168;51.146;17.120;2023-05-14T09:58:06;100433.20;;;29.70
66372;BMP180;53168;51.146;17.120;2023-05-14T10:00:40;100429.40;;;28.16
66372;BMP180;53168;51.146;17.120;2023-05-14T10:03:18;100426.60;;;26.94
66372;BMP180;53168;51.146;17.120;2023-05-14T10:05:52;100362.80;;;26.52
66372;BMP180;53168;51.146;17.120;2023-05-14T10:08:33;100411.20;;;28.82
66372;BMP180;53168;51.146;17.120;2023-05-14T10:11:12;100404.60;;;27.04
66372;BMP180;53168;51.146;17.120;2023-05-14T10:13:51;100407.00;;;26.06
66372;BMP180;53168;51.146;17.120;2023-05-14T10:16:39;100405.20;;;25.50
66372;BMP180;53168;51.146;17.120;2023-05-14T10:19:24;100394.60;;;27.54
66372;BMP180;53168;51.146;17.120;2023-05-14T10:22:07;100400.00;;;28.38
66372;BMP180;53168;51.146;17.120;2023-05-14T10:24:42;100379.00;;;28.66
66372;BMP180;53168;51.146;17.120;2023-05-14T10:27:18;100388.20;;;28.42
66372;BMP180;53168;51.146;17.120;2023-05-14T10:29:57;100351.40;;;29.08
66372;BMP180;53168;51.146;17.120;2023-05-14T10:32:33;100360.40;;;29.88
66372;BMP180;53168;51.146;17.120;2023-05-14T10:35:21;100384.40;;;28.48
66372;BMP180;53168;51.146;17.120;2023-05-14T10:37:56;100381.00;;;27.46
66372;BMP180;53168;51.146;17.120;2023-05-14T10:40:31;100376.60;;;27.10
66372;BMP180;53168;51.146;17.120;2023-05-14T10:43:05;100378.40;;;26.88
66372;BMP180;53168;51.146;17.120;2023-05-14T10:45:39;100368.80;;;26.60
66372;BMP180;53168;51.146;17.120;2023-05-14T10:48:13;100370.20;;;26.42
66372;BMP180;53168;51.146;17.120;2023-05-14T10:50:50;100365.40;;;26.00
66372;BMP180;53168;51.146;17.120;2023-05-14T10:53:34;100367.00;;;25.76
66372;BMP180;53168;51.146;17.120;2023-05-14T10:56:11;100367.00;;;25.60
66372;BMP180;53168;51.146;17.120;2023-05-14T10:58:45;100360.60;;;25.40
66372;BMP180;53168;51.146;17.120;2023-05-14T11:01:27;100364.00;;;25.20
66372;BMP180;53168;51.146;17.120;2023-05-14T11:04:03;100362.00;;;25.32
66372;BMP180;53168;51.146;17.120;2023-05-14T11:06:39;100358.60;;;25.40
66372;BMP180;53168;51.146;17.120;2023-05-14T11:09:17;100359.20;;;25.40
66372;BMP180;53168;51.146;17.120;2023-05-14T11:11:52;100348.20;;;25.34
66372;BMP180;53168;51.146;17.120;2023-05-14T11:14:25;100337.80;;;25.54
66372;BMP180;53168;51.146;17.120;2023-05-14T11:17:00;100338.80;;;25.80
66372;BMP180;53168;51.146;17.120;2023-05-14T11:19:34;100334.40;;;26.10
66372;BMP180;53168;51.146;17.120;2023-05-14T11:22:07;100335.60;;;26.30
66372;BMP180;53168;51.146;17.120;2023-05-14T11:24:41;100336.40;;;26.20
66372;BMP180;53168;51.146;17.120;2023-05-14T11:27:14;100334.20;;;25.92
66372;BMP180;53168;51.146;17.120;2023-05-14T11:29:49;100329.80;;;25.70
66372;BMP180;53168;51.146;17.120;2023-05-14T11:32:22;100332.40;;;25.80
66372;BMP180;53168;51.146;17.120;2023-05-14T11:34:56;100330.40;;;25.60
66372;BMP180;53168;51.146;17.120;2023-05-14T11:37:29;100316.40;;;25.50
66372;BMP180;53168;51.146;17.120;2023-05-14T11:40:05;100318.20;;;25.50
66372;BMP180;53168;51.146;17.120;2023-05-14T11:42:40;100319.40;;;25.40
66372;BMP180;53168;51.146;17.120;2023-05-14T11:45:19;100320.80;;;25.30
66372;BMP180;53168;51.146;17.120;2023-05-14T11:47:56;100313.80;;;25.40
66372;BMP180;53168;51.146;17.120;2023-05-14T11:50:34;100313.60;;;25.60
66372;BMP180;53168;51.146;17.120;2023-05-14T11:53:07;100307.40;;;25.70
66372;BMP180;53168;51.146;17.120;2023-05-14T11:55:43;100298.60;;;25.50
66372;BMP180;53168;51.146;17.120;2023-05-14T11:58:22;100299.20;;;25.60
66372;BMP180;53168;51.146;17.120;2023-05-14T12:00:57;100300.60;;;25.40
66372;BMP180;53168;51.146;17.120;2023-05-14T12:03:31;100311.80;;;25.24
66372;BMP180;53168;51.146;17.120;2023-05-14T12:06:08;100296.60;;;25.00
66372;BMP180;53168;51.146;17.120;2023-05-14T12:08:42;100294.20;;;25.00
66372;BMP180;53168;51.146;17.120;2023-05-14T12:11:19;100289.20;;;24.86
66372;BMP180;53168;51.146;17.120;2023-05-14T12:13:54;100286.00;;;24.80
66372;BMP180;53168;51.146;17.120;2023-05-14T12:16:31;100282.20;;;24.90
66372;BMP180;53168;51.146;17.120;2023-05-14T12:19:11;100283.60;;;24.90
66372;BMP180;53168;51.146;17.120;2023-05-14T12:21:47;100290.00;;;24.90
66372;BMP180;53168;51.146;17.120;2023-05-14T12:24:25;100288.80;;;24.70
66372;BMP180;53168;51.146;17.120;2023-05-14T12:27:03;100285.00;;;24.70
66372;BMP180;53168;51.146;17.120;2023-05-14T12:29:38;100280.00;;;24.70
66372;BMP180;53168;51.146;17.120;2023-05-14T12:32:12;100281.20;;;24.70
66372;BMP180;53168;51.146;17.120;2023-05-14T12:34:46;100285.60;;;24.70
66372;BMP180;53168;51.146;17.120;2023-05-14T12:37:19;100280.40;;;24.40
66372;BMP180;53168;51.146;17.120;2023-05-14T12:39:53;100280.20;;;24.14
66372;BMP180;53168;51.146;17.120;2023-05-14T12:42:26;100275.00;;;23.86
66372;BMP180;53168;51.146;17.120;2023-05-14T12:44:59;100265.80;;;23.90
66372;BMP180;53168;51.146;17.120;2023-05-14T12:47:36;100262.00;;;23.86
66372;BMP180;53168;51.146;17.120;2023-05-14T12:50:11;100264.20;;;23.78
66372;BMP180;53168;51.146;17.120;2023-05-14T12:52:47;100262.60;;;23.56
66372;BMP180;53168;51.146;17.120;2023-05-14T12:55:20;100266.80;;;23.50
66372;BMP180;53168;51.146;17.120;2023-05-14T12:57:54;100263.00;;;23.30
66372;BMP180;53168;51.146;17.120;2023-05-14T13:00:27;100258.00;;;23.20
66372;BMP180;53168;51.146;17.120;2023-05-14T13:03:00;100261.80;;;23.10
66372;BMP180;53168;51.146;17.120;2023-05-14T13:05:34;100261.20;;;22.90
66372;BMP180;53168;51.146;17.120;2023-05-14T13:08:07;100248.80;;;22.72
66372;BMP180;53168;51.146;17.120;2023-05-14T13:10:41;100247.40;;;22.70
66372;BMP180;53168;51.146;17.120;2023-05-14T13:13:15;100247.00;;;22.76
66372;BMP180;53168;51.146;17.120;2023-05-14T13:15:48;100244.00;;;22.70
66372;BMP180;53168;51.146;17.120;2023-05-14T13:18:22;100237.40;;;22.70
66372;BMP180;53168;51.146;17.120;2023-05-14T13:20:57;100231.60;;;22.70
66372;BMP180;53168;51.146;17.120;2023-05-14T13:23:30;100236.20;;;23.00
66372;BMP180;53168;51.146;17.120;2023-05-14T13:26:04;100233.00;;;23.10
66372;BMP180;53168;51.146;17.120;2023-05-14T13:28:38;100227.60;;;23.18
66372;BMP180;53168;51.146;17.120;2023-05-14T13:31:12;100224.60;;;23.30
66372;BMP180;53168;51.146;17.120;2023-05-14T13:33:46;100222.60;;;23.22
66372;BMP180;53168;51.146;17.120;2023-05-14T13:36:19;100224.80;;;23.40
66372;BMP180;53168;51.146;17.120;2023-05-14T13:38:53;100221.00;;;23.50
66372;BMP180;53168;51.146;17.120;2023-05-14T13:41:27;100217.00;;;23.50
66372;BMP180;53168;51.146;17.120;2023-05-14T13:44:01;100227.40;;;23.50
66372;BMP180;53168;51.146;17.120;2023-05-14T13:46:34;100217.40;;;23.30
66372;BMP180;53168;51.146;17.120;2023-05-14T13:49:07;100214.00;;;23.40
66372;BMP180;53168;51.146;17.120;2023-05-14T13:51:40;100218.40;;;23.30
66372;BMP180;53168;51.146;17.120;2023-05-14T13:54:13;100213.00;;;23.30
66372;BMP180;53168;51.146;17.120;2023-05-14T13:56:47;100216.00;;;23.30
66372;BMP180;53168;51.146;17.120;2023-05-14T13:59:20;100205.40;;;23.20
66372;BMP180;53168;51.146;17.120;2023-05-14T14:01:54;100203.20;;;23.16
66372;BMP180;53168;51.146;17.120;2023-05-14T14:04:28;100203.40;;;23.20
66372;BMP180;53168;51.146;17.120;2023-05-14T14:07:01;100201.20;;;23.24
66372;BMP180;53168;51.146;17.120;2023-05-14T14:09:35;100204.40;;;23.20
66372;BMP180;53168;51.146;17.120;2023-05-14T14:12:09;100206.20;;;23.20
66372;BMP180;53168;51.146;17.120;2023-05-14T14:18:16;100205.40;;;22.60
66372;BMP180;53168;51.146;17.120;2023-05-14T14:20:49;100211.40;;;22.60
66372;BMP180;53168;51.146;17.120;2023-05-14T14:23:24;100208.80;;;22.40
66372;BMP180;53168;51.146;17.120;2023-05-14T14:25:57;100208.60;;;22.24
66372;BMP180;53168;51.146;17.120;2023-05-14T14:28:31;100201.40;;;22.18
66372;BMP180;53168;51.146;17.120;2023-05-14T14:31:04;100204.40;;;22.00
66372;BMP180;53168;51.146;17.120;2023-05-14T14:33:38;100200.40;;;21.90